Time;durP1;ratioP1;P1;durP2;ratioP2;P2;SDS_P1;SDS_P2;PMS_P1;PMS_P2;Temp;Humidity;BMP_temperature;BMP_pressure;BME280_temperature;BME280_humidity;BME280_pressure;Samples;Min_cycle;Max_cycle;Signal;HPM_P1;HPM_P2
2021/08/29 00:00:28;;;;;;;2.23;1.93;;;16.90;99.90;;;;;;4995522;28;20658;-69
2021/08/29 00:02:54;;;;;;;2.40;2.20;;;16.80;99.90;;;;;;4991042;28;20234;-69
2021/08/29 00:05:20;;;;;;;3.13;2.87;;;16.80;99.90;;;;;;4984882;28;20273;-69
2021/08/29 00:07:45;;;;;;;2.27;2.10;;;16.80;99.90;;;;;;4990457;28;20221;-69
2021/08/29 00:10:11;;;;;;;1.83;1.73;;;16.80;99.90;;;;;;4974790;28;20222;-69
2021/08/29 00:12:37;;;;;;;2.47;2.27;;;16.80;99.90;;;;;;4983771;28;20695;-69
2021/08/29 00:15:04;;;;;;;1.70;1.60;;;16.80;99.90;;;;;;5005154;28;20460;-69
2021/08/29 00:17:29;;;;;;;1.97;1.87;;;16.80;99.90;;;;;;4997791;28;20256;-69
2021/08/29 00:19:55;;;;;;;1.97;1.60;;;16.80;99.90;;;;;;5010295;28;20495;-69
2021/08/29 00:22:21;;;;;;;1.70;1.60;;;16.70;99.90;;;;;;4996471;28;20718;-69
2021/08/29 00:24:46;;;;;;;2.03;1.90;;;16.70;99.90;;;;;;4990891;28;20225;-69
2021/08/29 00:27:12;;;;;;;1.90;1.80;;;16.70;99.90;;;;;;4991059;28;20973;-69
2021/08/29 00:29:37;;;;;;;2.47;1.90;;;16.70;99.90;;;;;;4983945;28;20272;-69
2021/08/29 00:32:04;;;;;;;1.37;1.27;;;16.70;99.90;;;;;;4990018;28;20236;-69
2021/08/29 00:34:29;;;;;;;1.30;1.20;;;16.70;99.90;;;;;;4991534;28;20249;-69
2021/08/29 00:36:55;;;;;;;1.20;1.10;;;16.70;99.90;;;;;;5001830;28;20462;-69
2021/08/29 00:39:21;;;;;;;1.30;1.20;;;16.70;99.90;;;;;;4972319;28;20715;-68
2021/08/29 00:41:47;;;;;;;1.13;1.03;;;16.70;99.90;;;;;;5005584;28;20427;-69
2021/08/29 00:44:15;;;;;;;1.03;1.03;;;16.70;99.90;;;;;;4990643;28;20985;-69
2021/08/29 00:46:42;;;;;;;1.30;1.10;;;16.70;99.90;;;;;;4972971;28;20448;-68
2021/08/29 00:49:13;;;;;;;1.40;1.30;;;16.70;99.90;;;;;;4990895;28;20469;-69
2021/08/29 00:51:39;;;;;;;0.80;0.80;;;16.70;99.90;;;;;;4990355;28;20456;-68
2021/08/29 00:54:04;;;;;;;1.30;1.07;;;16.70;99.90;;;;;;4991481;28;21006;-70
2021/08/29 00:56:30;;;;;;;1.37;0.90;;;16.70;99.90;;;;;;4990219;28;20309;-69
2021/08/29 00:58:58;;;;;;;0.93;0.93;;;16.70;99.90;;;;;;4993950;28;20468;-69
2021/08/29 01:01:36;;;;;;;0.93;0.93;;;16.70;99.90;;;;;;5027319;28;20459;-69
2021/08/29 01:04:07;;;;;;;2.17;1.53;;;16.70;99.90;;;;;;5022548;28;20475;-69
2021/08/29 01:06:41;;;;;;;1.23;1.13;;;16.70;99.90;;;;;;4999065;28;20503;-70
2021/08/29 01:09:24;;;;;;;1.47;1.37;;;16.70;99.90;;;;;;4991495;28;20536;-69
2021/08/29 01:11:52;;;;;;;1.50;1.40;;;16.70;99.90;;;;;;5006910;28;20557;-69
2021/08/29 01:14:34;;;;;;;1.20;1.10;;;16.70;99.90;;;;;;4990726;28;20515;-69
2021/08/29 01:17:03;;;;;;;1.43;1.33;;;16.60;99.90;;;;;;4990886;28;20469;-70
2021/08/29 01:19:43;;;;;;;1.40;1.30;;;16.70;99.90;;;;;;4990052;28;21009;-69
2021/08/29 01:22:10;;;;;;;2.00;1.53;;;16.60;99.90;;;;;;4999433;28;20548;-69
2021/08/29 01:24:38;;;;;;;1.80;1.70;;;16.60;99.90;;;;;;4994115;28;20471;-69
2021/08/29 01:27:42;;;;;;;2.63;1.57;;;16.60;99.90;;;;;;5010146;28;20454;-69
2021/08/29 01:30:10;;;;;;;1.73;1.63;;;16.60;99.90;;;;;;4984424;28;20455;-69
2021/08/29 01:32:36;;;;;;;1.80;1.40;;;16.60;99.90;;;;;;4990018;28;20848;-70
2021/08/29 01:35:03;;;;;;;1.80;1.70;;;16.60;99.90;;;;;;4971442;28;20469;-69
2021/08/29 01:37:39;;;;;;;2.23;2.03;;;16.60;99.90;;;;;;4989949;28;20469;-69
2021/08/29 01:40:06;;;;;;;1.90;1.80;;;16.60;99.90;;;;;;4974725;28;20511;-69
2021/08/29 01:42:35;;;;;;;1.40;1.30;;;16.60;99.90;;;;;;4989409;28;20832;-70
2021/08/29 01:45:05;;;;;;;2.50;1.97;;;16.60;99.90;;;;;;4990545;28;20458;-69
2021/08/29 01:47:32;;;;;;;1.93;1.60;;;16.60;99.90;;;;;;5001925;28;20444;-70
2021/08/29 01:49:59;;;;;;;2.07;1.87;;;16.60;99.90;;;;;;4995898;28;20483;-69
2021/08/29 01:52:25;;;;;;;2.00;1.80;;;16.60;99.90;;;;;;4989719;28;20233;-69
2021/08/29 01:55:17;;;;;;;1.50;1.40;;;16.60;99.90;;;;;;4989243;28;20488;-68
2021/08/29 01:58:09;;;;;;;2.00;1.50;;;16.60;99.90;;;;;;4986497;28;20504;-69
2021/08/29 02:00:55;;;;;;;1.90;1.80;;;16.50;99.90;;;;;;5007848;28;20468;-69
2021/08/29 02:03:25;;;;;;;2.53;2.20;;;16.50;99.90;;;;;;4990135;28;20464;-69
2021/08/29 02:06:20;;;;;;;2.43;2.10;;;16.60;99.90;;;;;;4993166;28;20463;-68
2021/08/29 02:08:54;;;;;;;2.00;1.87;;;16.60;99.90;;;;;;4973710;28;20428;-68
2021/08/29 02:11:22;;;;;;;2.00;1.90;;;16.60;99.90;;;;;;4990221;28;20457;-69
2021/08/29 02:13:53;;;;;;;2.17;1.70;;;16.50;99.90;;;;;;4967409;28;20462;-69
2021/08/29 02:16:21;;;;;;;1.87;1.70;;;16.50;99.90;;;;;;4955629;28;20466;-68
2021/08/29 02:18:50;;;;;;;2.67;2.10;;;16.50;99.90;;;;;;4962763;28;20457;-69
2021/08/29 02:21:17;;;;;;;1.80;1.70;;;16.50;99.90;;;;;;4991048;28;20832;-69
2021/08/29 02:23:45;;;;;;;5.57;1.50;;;16.50;99.90;;;;;;5025140;28;20463;-69
2021/08/29 02:26:12;;;;;;;2.17;1.97;;;16.50;99.90;;;;;;5009364;28;20459;-69
2021/08/29 02:28:38;;;;;;;2.07;1.87;;;16.50;99.90;;;;;;4992563;28;20467;-69
2021/08/29 02:31:06;;;;;;;1.70;1.60;;;16.50;99.90;;;;;;5009272;28;20510;-69
2021/08/29 02:33:32;;;;;;;1.90;1.70;;;16.50;99.90;;;;;;4975385;28;20469;-69
2021/08/29 02:35:59;;;;;;;5.80;2.00;;;16.50;99.90;;;;;;4989665;28;20452;-69
2021/08/29 02:38:27;;;;;;;2.10;1.80;;;16.50;99.90;;;;;;4989107;28;20214;-69
2021/08/29 02:40:55;;;;;;;2.20;2.00;;;16.50;99.90;;;;;;4989557;28;20450;-69
2021/08/29 02:43:23;;;;;;;2.53;2.33;;;16.40;99.90;;;;;;4987733;28;20222;-69
2021/08/29 02:45:49;;;;;;;1.90;1.80;;;16.40;99.90;;;;;;4988960;28;20464;-69
2021/08/29 02:48:22;;;;;;;2.07;1.83;;;16.40;99.90;;;;;;5007830;28;20447;-68
2021/08/29 02:50:48;;;;;;;1.67;1.57;;;16.40;99.90;;;;;;4975771;28;20444;-69
2021/08/29 02:53:18;;;;;;;2.13;1.60;;;16.40;99.90;;;;;;4973698;28;20847;-69
2021/08/29 02:55:52;;;;;;;1.87;1.67;;;16.40;99.90;;;;;;4989662;28;20453;-68
2021/08/29 02:58:19;;;;;;;2.83;1.80;;;16.30;99.90;;;;;;4989668;28;20997;-68
2021/08/29 03:01:02;;;;;;;2.07;1.97;;;16.30;99.90;;;;;;5005469;28;20452;-69
2021/08/29 03:03:51;;;;;;;2.10;1.90;;;16.30;99.90;;;;;;4976314;28;20441;-69
2021/08/29 03:06:17;;;;;;;2.20;1.57;;;16.30;99.90;;;;;;4989365;28;20449;-68
2021/08/29 03:08:43;;;;;;;2.20;1.83;;;16.30;99.90;;;;;;4989055;28;20520;-69
2021/08/29 03:11:10;;;;;;;2.07;1.90;;;16.30;99.90;;;;;;4973256;28;20222;-69
2021/08/29 03:13:36;;;;;;;2.17;1.97;;;16.30;99.90;;;;;;4988698;28;20489;-69
2021/08/29 03:16:03;;;;;;;2.43;2.10;;;16.30;99.90;;;;;;4989407;28;20449;-69
2021/08/29 03:18:50;;;;;;;1.83;1.73;;;16.20;99.90;;;;;;4988562;28;20468;-68
2021/08/29 03:21:45;;;;;;;1.83;1.73;;;16.30;99.90;;;;;;4936226;28;20455;-69
2021/08/29 03:24:12;;;;;;;3.17;1.60;;;16.30;99.90;;;;;;4989168;28;20457;-69
2021/08/29 03:26:39;;;;;;;1.87;1.73;;;16.30;99.90;;;;;;4989084;28;20228;-69
2021/08/29 03:29:25;;;;;;;1.53;1.43;;;16.30;99.90;;;;;;4989890;28;20484;-69
2021/08/29 03:31:52;;;;;;;1.60;1.50;;;16.20;99.90;;;;;;4988402;28;20835;-69
2021/08/29 03:34:19;;;;;;;1.70;1.50;;;16.20;99.90;;;;;;4989289;28;20476;-68
2021/08/29 03:36:45;;;;;;;1.70;1.60;;;16.20;99.90;;;;;;4988142;28;20528;-69
2021/08/29 03:39:15;;;;;;;2.23;1.73;;;16.20;99.90;;;;;;4973731;28;21097;-69
2021/08/29 03:41:43;;;;;;;1.50;1.40;;;16.20;99.90;;;;;;4972431;28;20989;-68
2021/08/29 03:44:14;;;;;;;3.10;1.70;;;16.20;99.90;;;;;;4988579;28;20837;-69
2021/08/29 03:46:41;;;;;;;1.67;1.57;;;16.20;99.90;;;;;;4987935;28;20592;-69
2021/08/29 03:49:25;;;;;;;2.27;2.07;;;16.20;99.90;;;;;;4988962;28;20536;-68
2021/08/29 03:51:53;;;;;;;1.87;1.67;;;16.20;99.90;;;;;;4988181;28;20476;-69
2021/08/29 03:54:20;;;;;;;1.80;1.70;;;16.20;99.90;;;;;;4974054;28;20461;-69
2021/08/29 03:56:46;;;;;;;2.13;1.93;;;16.20;99.90;;;;;;4992023;28;20477;-69
2021/08/29 03:59:12;;;;;;;2.20;2.00;;;16.20;99.90;;;;;;4995026;28;20829;-69
2021/08/29 04:01:38;;;;;;;2.47;1.93;;;16.20;99.90;;;;;;4958147;28;20659;-68
2021/08/29 04:04:05;;;;;;;4.00;2.60;;;16.20;99.90;;;;;;4988983;28;20226;-69
2021/08/29 04:06:34;;;;;;;2.53;2.30;;;16.20;99.90;;;;;;4988245;28;20453;-69
2021/08/29 04:09:05;;;;;;;2.53;1.97;;;16.20;99.90;;;;;;4971129;28;20484;-69
2021/08/29 04:11:33;;;;;;;4.00;2.80;;;16.20;99.90;;;;;;4969699;28;20460;-69
2021/08/29 04:14:00;;;;;;;4.53;2.77;;;16.10;99.90;;;;;;4972459;28;20457;-69
2021/08/29 04:16:31;;;;;;;3.10;2.80;;;16.10;99.90;;;;;;4987424;28;20477;-69
2021/08/29 04:19:08;;;;;;;4.30;2.97;;;16.10;99.90;;;;;;4990124;28;20468;-69
2021/08/29 04:21:34;;;;;;;2.83;2.20;;;16.10;99.90;;;;;;4990387;28;20883;-69
2021/08/29 04:24:01;;;;;;;3.10;2.70;;;16.10;99.90;;;;;;4991824;28;20606;-69
2021/08/29 04:26:37;;;;;;;2.90;2.60;;;16.10;99.90;;;;;;4996572;28;20456;-69
2021/08/29 04:29:04;;;;;;;4.00;2.63;;;16.20;99.90;;;;;;4988757;28;20453;-69
2021/08/29 04:31:32;;;;;;;3.80;3.20;;;16.10;99.90;;;;;;4969504;28;20468;-69
2021/08/29 04:34:06;;;;;;;3.10;2.70;;;16.10;99.90;;;;;;4972823;28;20226;-69
2021/08/29 04:36:37;;;;;;;2.97;2.67;;;16.10;99.90;;;;;;4971027;28;20477;-70
2021/08/29 04:39:14;;;;;;;3.10;2.80;;;16.10;99.90;;;;;;4988279;28;20464;-69
2021/08/29 04:41:40;;;;;;;5.60;3.10;;;16.10;99.90;;;;;;4969587;28;20461;-69
2021/08/29 04:44:07;;;;;;;4.20;2.30;;;16.10;99.90;;;;;;4987711;28;20233;-68
2021/08/29 04:46:35;;;;;;;3.50;2.90;;;16.00;99.90;;;;;;4984885;28;20214;-69
2021/08/29 04:49:01;;;;;;;2.57;2.27;;;16.00;99.90;;;;;;4988109;28;20483;-69
2021/08/29 04:51:29;;;;;;;3.40;3.10;;;16.00;99.90;;;;;;4970622;28;20218;-69
2021/08/29 04:53:54;;;;;;;3.00;2.40;;;16.00;99.90;;;;;;4988049;28;20232;-69
2021/08/29 04:56:20;;;;;;;2.33;2.13;;;16.00;99.90;;;;;;4971788;28;20480;-69
2021/08/29 04:58:46;;;;;;;2.90;2.60;;;16.00;99.90;;;;;;4987365;28;20221;-69
2021/08/29 05:01:12;;;;;;;2.37;2.17;;;16.00;99.90;;;;;;4995274;28;21010;-69
2021/08/29 05:03:37;;;;;;;2.90;2.57;;;15.90;99.90;;;;;;4955147;28;20253;-69
2021/08/29 05:06:05;;;;;;;2.03;1.87;;;15.90;99.90;;;;;;4987052;28;20233;-70
2021/08/29 05:08:31;;;;;;;2.93;2.63;;;15.90;99.90;;;;;;4994264;28;20456;-70
2021/08/29 05:10:57;;;;;;;2.70;2.50;;;15.90;99.90;;;;;;4986988;28;20831;-69
2021/08/29 05:13:22;;;;;;;3.70;3.23;;;15.90;99.90;;;;;;4985437;28;20280;-69
2021/08/29 05:15:48;;;;;;;8.03;2.60;;;15.90;99.90;;;;;;4951747;28;20688;-69
2021/08/29 05:18:14;;;;;;;3.50;2.93;;;15.90;99.90;;;;;;4987091;28;20746;-70
2021/08/29 05:20:52;;;;;;;2.87;2.60;;;15.90;99.90;;;;;;4984954;28;20234;-70
2021/08/29 05:23:41;;;;;;;4.00;2.50;;;15.90;99.90;;;;;;4982846;28;20468;-70
2021/08/29 05:26:21;;;;;;;3.10;2.80;;;15.90;99.90;;;;;;4989554;28;20539;-69
2021/08/29 05:28:47;;;;;;;3.73;3.40;;;15.90;99.90;;;;;;4985643;28;20527;-70
2021/08/29 05:31:13;;;;;;;3.83;2.60;;;15.90;99.90;;;;;;4970542;28;20663;-70
2021/08/29 05:33:40;;;;;;;3.00;2.70;;;15.90;99.90;;;;;;4969305;28;20663;-69
2021/08/29 05:36:05;;;;;;;3.30;3.00;;;15.90;99.90;;;;;;4987498;28;20484;-69
2021/08/29 05:38:31;;;;;;;4.20;3.80;;;15.90;99.90;;;;;;4985850;28;20700;-69
2021/08/29 05:41:22;;;;;;;4.20;3.40;;;15.90;99.90;;;;;;4986086;28;20320;-68
2021/08/29 05:44:07;;;;;;;2.97;2.67;;;15.90;99.90;;;;;;4987060;28;20997;-69
2021/08/29 05:46:37;;;;;;;4.30;2.93;;;15.90;99.90;;;;;;4998514;28;20452;-69
2021/08/29 05:49:03;;;;;;;3.07;2.77;;;15.90;99.90;;;;;;5004187;28;20456;-69
2021/08/29 05:51:31;;;;;;;2.80;2.50;;;15.80;99.90;;;;;;4984414;28;20248;-68
2021/08/29 05:53:56;;;;;;;3.53;3.20;;;15.80;99.90;;;;;;4986528;28;20989;-70
2021/08/29 05:56:22;;;;;;;3.30;2.60;;;15.80;99.90;;;;;;4970471;28;20313;-69
2021/08/29 05:58:48;;;;;;;2.67;2.47;;;15.80;99.90;;;;;;4970159;28;20528;-69
2021/08/29 06:01:15;;;;;;;3.23;2.87;;;15.80;99.90;;;;;;4989878;28;20355;-70
2021/08/29 06:03:44;;;;;;;2.63;2.37;;;15.80;99.90;;;;;;5004362;28;20225;-69
2021/08/29 06:06:24;;;;;;;4.10;2.80;;;15.80;99.90;;;;;;4987324;28;20464;-69
2021/08/29 06:08:51;;;;;;;3.97;2.97;;;15.90;99.90;;;;;;4968900;28;20465;-69
2021/08/29 06:11:17;;;;;;;2.80;2.60;;;15.90;99.90;;;;;;4970479;28;20883;-69
2021/08/29 06:13:43;;;;;;;2.83;2.53;;;15.80;99.90;;;;;;4983734;28;20544;-69
2021/08/29 06:16:08;;;;;;;2.40;2.20;;;15.90;99.90;;;;;;4971232;28;20221;-70
2021/08/29 06:18:34;;;;;;;3.17;2.43;;;15.90;99.90;;;;;;4984246;28;20241;-70
2021/08/29 06:21:00;;;;;;;2.80;2.30;;;15.80;99.90;;;;;;5002146;28;20250;-70
2021/08/29 06:23:26;;;;;;;3.80;2.63;;;15.80;99.90;;;;;;4986467;28;20222;-69
2021/08/29 06:26:10;;;;;;;2.63;2.43;;;15.80;99.90;;;;;;4986120;28;20468;-70
2021/08/29 06:29:11;;;;;;;3.10;2.40;;;15.80;99.90;;;;;;4987515;28;20463;-69
2021/08/29 06:31:56;;;;;;;3.17;2.87;;;15.80;99.90;;;;;;4986172;28;20460;-70
2021/08/29 06:34:42;;;;;;;2.93;2.63;;;15.70;99.90;;;;;;4985635;28;20510;-70
2021/08/29 06:37:17;;;;;;;3.10;2.70;;;15.70;99.90;;;;;;4984821;28;20473;-70
2021/08/29 06:39:42;;;;;;;3.30;3.00;;;15.70;99.90;;;;;;4966381;28;20475;-70
2021/08/29 06:42:09;;;;;;;3.03;2.80;;;15.70;99.90;;;;;;4985893;28;20221;-69
2021/08/29 06:44:36;;;;;;;2.20;2.00;;;15.70;99.90;;;;;;4983613;28;20457;-70
2021/08/29 06:47:07;;;;;;;3.03;2.73;;;15.70;99.90;;;;;;4986501;28;20475;-69
2021/08/29 06:49:51;;;;;;;3.13;2.53;;;15.70;99.90;;;;;;4995580;28;20476;-70
2021/08/29 06:52:55;;;;;;;4.20;2.60;;;15.70;99.90;;;;;;4973086;28;20527;-69
2021/08/29 06:55:39;;;;;;;2.90;2.63;;;15.70;99.90;;;;;;4983350;28;20540;-69
2021/08/29 06:58:28;;;;;;;5.70;2.67;;;15.80;99.90;;;;;;4938829;28;20468;-70
2021/08/29 07:00:54;;;;;;;3.07;2.77;;;15.80;99.90;;;;;;4989309;28;20465;-70
2021/08/29 07:03:20;;;;;;;2.80;2.50;;;15.80;99.90;;;;;;4969739;28;20240;-70
2021/08/29 07:05:45;;;;;;;2.70;2.30;;;15.80;99.90;;;;;;4984350;28;20453;-69
2021/08/29 07:08:29;;;;;;;3.40;2.97;;;15.80;99.90;;;;;;4986818;28;20706;-70
2021/08/29 07:10:54;;;;;;;2.90;2.60;;;15.80;99.90;;;;;;4986173;28;20472;-70
2021/08/29 07:13:49;;;;;;;3.60;3.10;;;15.80;99.90;;;;;;4984168;28;20291;-70
2021/08/29 07:16:15;;;;;;;5.00;2.60;;;15.80;99.90;;;;;;4984367;28;20539;-69
2021/08/29 07:18:40;;;;;;;4.03;3.70;;;15.80;99.90;;;;;;4984243;28;20226;-69
2021/08/29 07:21:32;;;;;;;4.03;3.13;;;15.80;99.90;;;;;;4983208;28;20718;-69
2021/08/29 07:24:20;;;;;;;3.63;3.13;;;15.80;99.90;;;;;;4999298;28;20472;-70
2021/08/29 07:27:05;;;;;;;4.53;3.77;;;15.90;99.90;;;;;;4994360;28;20460;-70
2021/08/29 07:29:59;;;;;;;4.10;3.67;;;15.80;99.90;;;;;;4966254;28;20473;-70
2021/08/29 07:32:45;;;;;;;4.30;3.87;;;15.90;99.90;;;;;;4986986;28;20461;-70
2021/08/29 07:35:11;;;;;;;4.37;3.20;;;15.90;99.90;;;;;;4989641;28;20861;-69
2021/08/29 07:37:57;;;;;;;7.43;4.10;;;15.90;99.90;;;;;;4989470;28;20236;-69
2021/08/29 07:40:26;;;;;;;5.30;4.33;;;15.90;99.90;;;;;;4989029;28;20465;-70
2021/08/29 07:42:52;;;;;;;4.07;3.60;;;15.90;99.90;;;;;;5002465;28;20283;-70
2021/08/29 07:45:19;;;;;;;6.30;3.53;;;15.90;99.90;;;;;;5000949;28;20500;-69
2021/08/29 07:47:51;;;;;;;4.87;3.60;;;15.90;99.90;;;;;;4986424;28;20218;-70
2021/08/29 07:50:20;;;;;;;5.80;4.13;;;15.90;99.90;;;;;;4994690;28;20479;-70
2021/08/29 07:52:46;;;;;;;5.10;3.40;;;15.90;99.90;;;;;;4986557;28;20465;-70
2021/08/29 07:55:49;;;;;;;4.47;4.07;;;15.90;99.90;;;;;;4963135;28;20906;-70
2021/08/29 07:58:20;;;;;;;5.10;4.17;;;15.90;99.90;;;;;;4956158;28;20465;-70
2021/08/29 08:00:49;;;;;;;6.47;4.63;;;15.90;99.90;;;;;;4994645;28;20463;-70
2021/08/29 08:03:41;;;;;;;6.30;4.20;;;16.00;99.90;;;;;;4967099;28;20549;-70
2021/08/29 08:06:25;;;;;;;4.50;3.83;;;16.00;99.90;;;;;;4977721;28;20468;-69
2021/08/29 08:09:09;;;;;;;4.07;3.63;;;16.00;99.90;;;;;;4977979;28;20840;-69
2021/08/29 08:11:53;;;;;;;4.73;4.10;;;16.00;99.90;;;;;;4987846;28;20515;-70
2021/08/29 08:14:19;;;;;;;4.00;3.60;;;16.00;99.90;;;;;;4987528;28;20865;-70
2021/08/29 08:16:44;;;;;;;5.03;3.80;;;16.00;99.90;;;;;;4987935;28;20233;-70
2021/08/29 08:19:39;;;;;;;4.47;3.77;;;16.00;99.90;;;;;;4983602;28;20218;-70
2021/08/29 08:22:05;;;;;;;6.10;4.83;;;16.00;99.90;;;;;;4996205;28;20464;-69
2021/08/29 08:25:01;;;;;;;4.63;3.53;;;16.00;99.90;;;;;;4992610;28;20461;-70
2021/08/29 08:27:45;;;;;;;4.63;3.80;;;16.00;99.90;;;;;;4986381;28;20468;-70
2021/08/29 08:30:29;;;;;;;5.30;4.50;;;16.00;99.90;;;;;;4986645;28;20601;-70
2021/08/29 08:33:13;;;;;;;7.60;5.00;;;16.00;99.90;;;;;;4982135;28;20525;-70
2021/08/29 08:35:57;;;;;;;5.53;4.93;;;16.00;99.90;;;;;;4988410;28;20468;-70
2021/08/29 08:38:41;;;;;;;5.50;4.40;;;16.00;99.90;;;;;;4987019;28;20475;-70
2021/08/29 08:41:43;;;;;;;5.90;4.80;;;16.00;99.90;;;;;;4974620;28;20456;-70
2021/08/29 08:44:34;;;;;;;8.97;6.20;;;16.00;99.90;;;;;;4978337;28;20469;-69
2021/08/29 08:47:19;;;;;;;6.17;5.17;;;16.00;99.90;;;;;;4997586;28;20472;-70
2021/08/29 08:50:04;;;;;;;7.00;5.60;;;16.00;99.90;;;;;;4988274;28;20523;-70
2021/08/29 08:52:49;;;;;;;8.00;6.23;;;16.00;99.90;;;;;;4985861;28;20476;-70
2021/08/29 08:55:34;;;;;;;10.20;8.60;;;16.00;99.90;;;;;;4986410;28;20595;-70
2021/08/29 08:58:19;;;;;;;10.57;6.60;;;16.00;99.90;;;;;;4987829;28;20535;-70
2021/08/29 09:01:07;;;;;;;9.20;7.23;;;16.00;99.90;;;;;;4986266;28;20515;-69
2021/08/29 09:03:41;;;;;;;9.47;7.13;;;16.00;99.90;;;;;;5001595;28;20479;-69
2021/08/29 09:06:18;;;;;;;10.20;7.83;;;16.00;99.90;;;;;;4987822;28;20475;-68
2021/08/29 09:08:44;;;;;;;10.80;7.57;;;16.00;99.90;;;;;;4980651;28;21018;-70
2021/08/29 09:11:10;;;;;;;11.87;8.27;;;16.00;99.90;;;;;;4953354;28;20466;-70
2021/08/29 09:13:49;;;;;;;11.03;9.10;;;16.00;99.90;;;;;;4957931;28;20997;-69
2021/08/29 09:16:17;;;;;;;14.43;10.03;;;16.00;99.90;;;;;;4995819;28;20468;-69
2021/08/29 09:18:50;;;;;;;13.53;8.80;;;16.00;99.90;;;;;;4986200;28;20453;-70
2021/08/29 09:21:28;;;;;;;12.60;9.80;;;16.10;99.90;;;;;;4988993;28;20464;-69
2021/08/29 09:23:57;;;;;;;14.53;9.10;;;16.10;99.90;;;;;;4982031;28;20469;-69
2021/08/29 09:26:49;;;;;;;12.77;8.20;;;16.10;99.90;;;;;;4984451;28;20944;-70
2021/08/29 09:29:30;;;;;;;11.60;9.00;;;16.10;99.90;;;;;;4983140;28;20458;-70
2021/08/29 09:32:00;;;;;;;13.23;8.40;;;16.10;99.90;;;;;;4986965;28;20457;-69
2021/08/29 09:34:32;;;;;;;12.37;8.87;;;16.10;99.90;;;;;;4985159;28;20473;-70
2021/08/29 09:37:01;;;;;;;9.83;7.87;;;16.10;99.90;;;;;;4987433;28;20930;-69
2021/08/29 09:39:46;;;;;;;11.73;7.93;;;16.10;99.90;;;;;;4987986;28;20454;-69
2021/08/29 09:42:19;;;;;;;12.40;8.40;;;16.10;99.90;;;;;;4986547;28;20473;-69
2021/08/29 09:44:57;;;;;;;12.53;7.90;;;16.20;99.90;;;;;;4999813;28;20467;-69
2021/08/29 09:47:32;;;;;;;11.07;8.60;;;16.20;99.90;;;;;;4996301;28;20468;-69
2021/08/29 09:50:20;;;;;;;12.63;8.50;;;16.20;99.90;;;;;;4980456;28;21109;-69
2021/08/29 09:53:02;;;;;;;10.60;7.40;;;16.20;99.90;;;;;;4969152;28;20557;-69
2021/08/29 09:55:48;;;;;;;8.03;6.17;;;16.20;99.90;;;;;;4984070;28;20457;-69
2021/08/29 09:58:33;;;;;;;9.40;7.10;;;16.20;99.90;;;;;;4984586;28;20531;-70
2021/08/29 10:01:17;;;;;;;8.80;7.10;;;16.20;99.90;;;;;;4983457;28;20467;-69
2021/08/29 10:03:59;;;;;;;8.67;6.67;;;16.20;99.90;;;;;;4981596;28;20470;-70
2021/08/29 10:06:30;;;;;;;8.50;6.50;;;16.30;99.90;;;;;;4984560;28;20565;-69
2021/08/29 10:09:01;;;;;;;9.63;7.80;;;16.20;99.90;;;;;;4985836;28;20667;-69
2021/08/29 10:11:39;;;;;;;9.03;7.07;;;16.30;99.90;;;;;;4982373;28;20535;-69
2021/08/29 10:14:06;;;;;;;9.60;6.90;;;16.30;99.90;;;;;;4983182;28;20807;-69
2021/08/29 10:16:35;;;;;;;9.07;6.30;;;16.30;99.90;;;;;;4966044;28;20559;-69
2021/08/29 10:19:28;;;;;;;11.07;6.63;;;16.30;99.90;;;;;;4990921;28;20510;-70
2021/08/29 10:22:13;;;;;;;8.23;5.90;;;16.30;99.90;;;;;;4986874;28;20523;-69
2021/08/29 10:24:39;;;;;;;7.63;6.00;;;16.30;99.90;;;;;;4984397;28;20468;-69
2021/08/29 10:27:13;;;;;;;7.17;6.10;;;16.30;99.90;;;;;;4973946;28;21012;-69
2021/08/29 10:30:01;;;;;;;9.60;6.87;;;16.30;99.90;;;;;;4995791;28;20992;-69
2021/08/29 10:32:51;;;;;;;9.87;6.73;;;16.30;99.90;;;;;;4951781;28;20453;-70
2021/08/29 10:35:46;;;;;;;10.87;6.83;;;16.30;99.90;;;;;;4988153;28;20460;-69
2021/08/29 10:38:30;;;;;;;7.77;6.60;;;16.30;99.90;;;;;;4983401;28;20618;-69
2021/08/29 10:41:26;;;;;;;7.90;6.30;;;16.30;99.90;;;;;;4954472;28;20636;-69
2021/08/29 10:43:59;;;;;;;9.53;7.30;;;16.30;99.90;;;;;;4985849;28;20469;-69
2021/08/29 10:46:53;;;;;;;8.30;6.03;;;16.30;99.90;;;;;;4981403;28;20464;-69
2021/08/29 10:49:37;;;;;;;9.60;7.53;;;16.40;99.90;;;;;;4987449;28;20537;-69
2021/08/29 10:52:04;;;;;;;8.23;6.53;;;16.30;99.90;;;;;;5000298;28;20453;-69
2021/08/29 10:54:30;;;;;;;10.40;7.27;;;16.40;99.90;;;;;;4981900;28;20837;-70
2021/08/29 10:56:56;;;;;;;10.33;7.47;;;16.30;99.90;;;;;;4993612;28;20468;-69
2021/08/29 10:59:25;;;;;;;9.07;6.30;;;16.40;99.90;;;;;;4990132;28;20249;-69
2021/08/29 11:02:10;;;;;;;7.53;6.50;;;16.40;99.90;;;;;;4981275;28;20980;-69
2021/08/29 11:04:45;;;;;;;9.63;7.13;;;16.40;99.90;;;;;;4993388;28;20470;-69
2021/08/29 11:07:39;;;;;;;8.97;7.33;;;16.40;99.90;;;;;;4987986;28;20474;-69
2021/08/29 11:10:07;;;;;;;8.57;6.73;;;16.50;99.90;;;;;;5001722;28;20969;-69
2021/08/29 11:12:34;;;;;;;9.87;7.20;;;16.50;99.90;;;;;;4994546;28;20984;-69
2021/08/29 11:15:07;;;;;;;8.20;6.30;;;16.50;99.90;;;;;;4994639;28;20469;-69
2021/08/29 11:17:38;;;;;;;10.43;6.67;;;16.50;99.90;;;;;;4992132;28;20472;-70
2021/08/29 11:20:06;;;;;;;9.10;7.70;;;16.50;99.90;;;;;;4997300;28;20997;-70
2021/08/29 11:22:46;;;;;;;9.47;7.60;;;16.50;99.90;;;;;;4993864;28;20468;-69
2021/08/29 11:25:31;;;;;;;10.97;7.00;;;16.50;99.90;;;;;;4992760;28;20540;-69
2021/08/29 11:28:31;;;;;;;9.83;7.10;;;16.60;99.90;;;;;;4953676;28;20470;-69
2021/08/29 11:31:11;;;;;;;14.50;7.27;;;16.60;99.90;;;;;;4988863;28;20530;-69
2021/08/29 11:33:43;;;;;;;9.17;6.80;;;16.60;99.90;;;;;;4987293;28;20547;-69
2021/08/29 11:36:29;;;;;;;8.47;6.83;;;16.60;99.90;;;;;;4959707;28;20462;-69
2021/08/29 11:38:58;;;;;;;8.77;6.57;;;16.60;99.90;;;;;;4978242;28;21056;-69
2021/08/29 11:41:24;;;;;;;7.10;6.17;;;16.60;99.90;;;;;;5008059;28;20475;-69
2021/08/29 11:43:51;;;;;;;8.07;7.10;;;16.60;99.90;;;;;;4989930;28;20448;-69
2021/08/29 11:46:27;;;;;;;7.57;5.63;;;16.60;99.90;;;;;;4981828;28;20260;-71
2021/08/29 11:49:14;;;;;;;7.13;6.40;;;16.70;99.90;;;;;;4971894;28;20460;-71
2021/08/29 11:51:49;;;;;;;7.37;6.67;;;16.60;99.90;;;;;;4979968;28;20503;-69
2021/08/29 11:54:19;;;;;;;7.53;6.30;;;16.70;99.90;;;;;;4984563;28;20448;-70
2021/08/29 11:56:49;;;;;;;7.67;6.57;;;16.70;99.90;;;;;;4984264;28;20456;-70
2021/08/29 11:59:30;;;;;;;9.63;8.00;;;16.70;99.90;;;;;;5003912;28;20469;-69
2021/08/29 12:01:59;;;;;;;8.30;6.73;;;16.70;99.90;;;;;;5005517;28;20537;-69
2021/08/29 12:04:27;;;;;;;9.57;7.57;;;16.70;99.90;;;;;;4996190;28;20479;-69
2021/08/29 12:07:35;;;;;;;8.20;6.97;;;16.70;99.90;;;;;;4997684;28;20865;-70
2021/08/29 12:10:19;;;;;;;8.60;6.60;;;16.80;99.90;;;;;;4995222;28;20849;-70
2021/08/29 12:13:04;;;;;;;7.33;6.63;;;16.70;99.90;;;;;;4993121;28;20479;-70
2021/08/29 12:16:09;;;;;;;12.33;6.93;;;16.80;99.90;;;;;;4995440;28;21076;-70
2021/08/29 12:18:48;;;;;;;12.20;8.07;;;16.80;99.90;;;;;;4995898;28;20445;-70
2021/08/29 12:21:21;;;;;;;7.27;5.90;;;16.80;99.90;;;;;;4996364;28;20461;-70
2021/08/29 12:24:24;;;;;;;6.77;6.07;;;16.80;99.90;;;;;;4993470;28;20552;-69
2021/08/29 12:27:00;;;;;;;10.67;6.97;;;16.70;99.90;;;;;;4987374;28;20455;-70
2021/08/29 12:29:27;;;;;;;8.40;5.20;;;16.80;99.90;;;;;;4974982;28;20448;-70
2021/08/29 12:31:53;;;;;;;6.57;5.80;;;16.80;99.90;;;;;;4990443;28;20437;-70
2021/08/29 12:34:26;;;;;;;8.63;5.70;;;16.80;99.90;;;;;;4989931;28;20475;-69
2021/08/29 12:37:03;;;;;;;6.97;6.10;;;16.80;99.90;;;;;;4990039;28;20458;-70
2021/08/29 12:39:29;;;;;;;11.70;6.53;;;16.80;99.90;;;;;;4983839;28;20449;-70
2021/08/29 12:42:12;;;;;;;7.10;5.00;;;16.80;99.90;;;;;;4990587;28;20453;-70
2021/08/29 12:44:46;;;;;;;5.07;4.57;;;16.80;99.90;;;;;;4991422;28;20449;-71
2021/08/29 12:47:12;;;;;;;5.47;4.90;;;16.80;99.90;;;;;;4991521;28;21050;-70
2021/08/29 12:49:40;;;;;;;4.60;4.17;;;16.80;99.90;;;;;;4996230;28;20485;-70
2021/08/29 12:52:08;;;;;;;4.63;3.53;;;16.80;99.90;;;;;;4986554;28;20508;-70
2021/08/29 12:54:34;;;;;;;4.43;4.00;;;16.80;99.90;;;;;;4990735;28;20468;-71
2021/08/29 12:57:03;;;;;;;3.87;3.47;;;16.80;99.90;;;;;;4976136;28;20462;-70
2021/08/29 12:59:30;;;;;;;3.87;3.50;;;16.70;99.90;;;;;;4982259;28;20217;-70
2021/08/29 13:01:59;;;;;;;4.60;3.63;;;16.70;99.90;;;;;;4990105;28;20472;-69
2021/08/29 13:04:30;;;;;;;4.23;3.53;;;16.80;99.90;;;;;;4986505;28;20552;-70
2021/08/29 13:07:01;;;;;;;2.70;2.50;;;16.80;99.90;;;;;;4969147;28;20449;-70
2021/08/29 13:09:27;;;;;;;2.90;2.70;;;16.70;99.90;;;;;;4990363;28;20461;-70
2021/08/29 13:11:53;;;;;;;4.10;2.90;;;16.70;99.90;;;;;;4970152;28;20491;-70
2021/08/29 13:14:29;;;;;;;3.10;2.80;;;16.70;99.90;;;;;;4989153;28;20237;-70
2021/08/29 13:16:56;;;;;;;6.27;5.13;;;16.70;99.90;;;;;;4989281;28;20560;-70
2021/08/29 13:19:25;;;;;;;5.80;4.90;;;16.70;99.90;;;;;;4988927;28;20467;-70